Time;durP1;ratioP1;P1;durP2;ratioP2;P2;SDS_P1;SDS_P2;PMS_P1;PMS_P2;Temp;Humidity;BMP_temperature;BMP_pressure;BME280_temperature;BME280_humidity;BME280_pressure;Samples;Min_cycle;Max_cycle;Signal;HPM_P1;HPM_P2
2024/01/24 00:00:05;;;;;;;3.17;1.73;;;13.50;99.90;;;;;;5095208;28;20266;-84
2024/01/24 00:02:30;;;;;;;5.33;2.00;;;13.60;99.90;;;;;;5095511;28;20272;-85
2024/01/24 00:04:56;;;;;;;6.63;2.30;;;13.50;99.90;;;;;;5095114;28;20289;-84
2024/01/24 00:07:22;;;;;;;3.83;1.23;;;13.50;99.90;;;;;;5095050;28;20589;-84
2024/01/24 00:09:47;;;;;;;2.47;1.40;;;13.60;99.90;;;;;;5095661;28;20221;-84
2024/01/24 00:12:13;;;;;;;4.33;1.83;;;13.60;99.90;;;;;;5096549;28;20700;-83
2024/01/24 00:14:39;;;;;;;4.90;1.83;;;13.60;99.90;;;;;;5097622;28;20218;-85
2024/01/24 00:17:05;;;;;;;3.43;1.57;;;13.70;99.90;;;;;;5095393;28;20222;-84
2024/01/24 00:19:31;;;;;;;3.70;1.90;;;13.60;99.90;;;;;;5095254;28;20179;-84
2024/01/24 00:22:00;;;;;;;3.60;1.50;;;13.60;99.90;;;;;;5094148;28;20179;-84
2024/01/24 00:24:25;;;;;;;4.07;1.93;;;13.60;99.90;;;;;;5094456;28;20191;-83
2024/01/24 00:26:51;;;;;;;5.07;1.70;;;13.70;99.90;;;;;;5093060;28;20192;-83
2024/01/24 00:29:16;;;;;;;4.40;1.90;;;13.70;99.90;;;;;;5099764;28;20221;-86
2024/01/24 00:31:43;;;;;;;2.73;1.47;;;13.70;99.90;;;;;;5102143;28;20175;-84
2024/01/24 00:34:08;;;;;;;4.17;1.80;;;13.80;99.90;;;;;;5098386;28;20209;-84
2024/01/24 00:36:34;;;;;;;4.90;1.40;;;13.70;99.90;;;;;;5094887;28;20175;-85
2024/01/24 00:38:59;;;;;;;2.70;1.37;;;13.70;99.90;;;;;;5093443;28;20176;-83
2024/01/24 00:41:25;;;;;;;4.00;1.30;;;13.70;99.90;;;;;;5094584;28;20266;-84
2024/01/24 00:43:51;;;;;;;3.37;1.70;;;13.70;99.90;;;;;;5094655;28;20180;-84
2024/01/24 00:46:17;;;;;;;3.87;1.40;;;13.70;99.90;;;;;;5094695;28;20199;-83
2024/01/24 00:48:42;;;;;;;2.57;1.30;;;13.70;99.90;;;;;;5094384;28;20568;-84
2024/01/24 00:51:08;;;;;;;4.33;1.80;;;13.70;99.90;;;;;;5093986;28;20192;-84
2024/01/24 00:53:37;;;;;;;3.83;1.40;;;13.70;99.90;;;;;;5094347;28;20194;-84
2024/01/24 00:56:07;;;;;;;3.30;1.50;;;13.70;99.90;;;;;;5093636;28;20179;-83
2024/01/24 00:58:32;;;;;;;3.20;1.70;;;13.70;99.90;;;;;;5093434;28;20195;-85
2024/01/24 01:00:58;;;;;;;4.03;1.90;;;13.70;99.90;;;;;;5094028;28;20182;-83
2024/01/24 01:03:24;;;;;;;5.43;1.80;;;13.70;99.90;;;;;;5094095;28;20228;-84
2024/01/24 01:05:49;;;;;;;3.10;1.80;;;13.70;99.90;;;;;;5093869;28;20178;-84
2024/01/24 01:08:16;;;;;;;2.53;1.23;;;13.60;99.90;;;;;;5092867;28;20172;-84
2024/01/24 01:10:42;;;;;;;4.00;1.40;;;13.60;99.90;;;;;;5093532;28;20176;-83
2024/01/24 01:13:08;;;;;;;3.13;1.40;;;13.50;99.90;;;;;;5095043;28;20170;-84
2024/01/24 01:15:33;;;;;;;2.80;1.47;;;13.40;99.90;;;;;;5093340;28;20210;-83
2024/01/24 01:17:59;;;;;;;3.83;1.70;;;13.30;99.90;;;;;;5093927;28;20191;-83
2024/01/24 01:20:25;;;;;;;3.27;1.67;;;13.20;99.90;;;;;;5093040;28;20250;-82
2024/01/24 01:22:50;;;;;;;3.03;1.63;;;13.30;99.90;;;;;;5093934;28;20172;-84
2024/01/24 01:25:16;;;;;;;2.57;1.50;;;13.20;99.90;;;;;;5094064;28;20182;-82
2024/01/24 01:27:42;;;;;;;3.43;1.67;;;13.20;99.90;;;;;;5094144;28;20254;-83
2024/01/24 01:30:07;;;;;;;2.50;1.60;;;13.20;99.90;;;;;;5094888;28;20663;-82
2024/01/24 01:32:33;;;;;;;4.07;1.80;;;13.10;99.90;;;;;;5092763;28;20251;-83
2024/01/24 01:34:59;;;;;;;2.83;1.60;;;13.20;99.90;;;;;;5092432;28;20530;-83
2024/01/24 01:37:25;;;;;;;2.37;1.60;;;13.20;99.90;;;;;;5094928;28;20172;-84
2024/01/24 01:39:54;;;;;;;2.87;1.60;;;13.20;99.90;;;;;;5095337;28;20178;-83
2024/01/24 01:42:19;;;;;;;2.03;1.40;;;13.10;99.90;;;;;;5093055;28;20597;-84
2024/01/24 01:44:49;;;;;;;3.37;1.43;;;13.10;99.90;;;;;;5093667;28;20176;-84
2024/01/24 01:47:15;;;;;;;3.80;1.93;;;13.10;99.90;;;;;;5094881;28;20220;-84
2024/01/24 01:49:45;;;;;;;3.30;1.97;;;13.10;99.90;;;;;;5093458;28;20669;-84
2024/01/24 01:52:11;;;;;;;5.00;2.10;;;13.10;99.90;;;;;;5094148;28;20168;-84
2024/01/24 01:54:38;;;;;;;2.50;1.53;;;13.00;99.90;;;;;;5094058;28;20194;-85
2024/01/24 01:57:08;;;;;;;2.53;1.60;;;13.00;99.90;;;;;;5093084;28;20186;-84
2024/01/24 01:59:34;;;;;;;1.70;1.47;;;13.00;99.90;;;;;;5093046;28;20693;-84
2024/01/24 02:02:01;;;;;;;2.93;1.77;;;12.90;99.90;;;;;;5093184;28;20184;-84
2024/01/24 02:04:28;;;;;;;2.37;1.40;;;13.00;99.90;;;;;;5093148;28;20232;-83
2024/01/24 02:06:58;;;;;;;2.10;1.30;;;12.90;99.90;;;;;;5095080;28;20174;-83
2024/01/24 02:09:24;;;;;;;2.13;1.50;;;12.90;99.90;;;;;;5094073;28;20218;-83
2024/01/24 02:11:50;;;;;;;2.67;1.40;;;12.80;99.90;;;;;;5093957;28;20171;-83
2024/01/24 02:14:16;;;;;;;2.73;1.50;;;12.90;99.90;;;;;;5079179;28;20237;-82
2024/01/24 02:16:42;;;;;;;3.73;1.40;;;12.90;99.90;;;;;;5097425;28;20184;-82
2024/01/24 02:19:08;;;;;;;1.30;1.00;;;12.80;99.90;;;;;;5095359;28;20182;-83
2024/01/24 02:21:33;;;;;;;2.70;1.37;;;12.90;99.90;;;;;;5094092;28;20221;-84
2024/01/24 02:24:00;;;;;;;1.70;1.10;;;12.80;99.90;;;;;;5095212;28;20173;-84
2024/01/24 02:26:26;;;;;;;1.30;0.97;;;12.90;99.90;;;;;;5095181;28;20488;-82
2024/01/24 02:28:52;;;;;;;1.90;0.93;;;12.90;99.90;;;;;;5111924;28;20214;-83
2024/01/24 02:31:19;;;;;;;1.40;1.00;;;12.90;99.90;;;;;;5104932;28;20190;-83
2024/01/24 02:33:45;;;;;;;1.30;0.90;;;12.90;99.90;;;;;;5093117;28;20171;-81
2024/01/24 02:36:15;;;;;;;2.33;1.20;;;12.80;99.90;;;;;;5092716;28;20255;-84
2024/01/24 02:38:41;;;;;;;1.33;1.00;;;12.80;99.90;;;;;;5092200;28;20180;-84
2024/01/24 02:41:07;;;;;;;1.30;0.80;;;13.00;99.90;;;;;;5076048;28;20701;-85
2024/01/24 02:43:33;;;;;;;1.10;0.77;;;12.90;99.90;;;;;;5092699;28;20179;-85
2024/01/24 02:46:00;;;;;;;1.10;0.80;;;12.90;99.90;;;;;;5092461;28;20182;-85
2024/01/24 02:48:26;;;;;;;1.57;1.00;;;12.90;99.90;;;;;;5092197;28;20258;-86
2024/01/24 02:50:52;;;;;;;0.80;0.70;;;12.90;99.90;;;;;;5092383;28;20178;-84
2024/01/24 02:53:18;;;;;;;0.63;0.63;;;12.90;99.90;;;;;;5092763;28;20208;-85
2024/01/24 02:55:44;;;;;;;0.60;0.60;;;12.90;99.90;;;;;;5092709;28;20176;-84
2024/01/24 02:58:10;;;;;;;0.97;0.80;;;12.90;99.90;;;;;;5092697;28;20195;-86
2024/01/24 03:00:37;;;;;;;0.60;0.60;;;12.90;99.90;;;;;;5075679;28;20260;-85
2024/01/24 03:03:04;;;;;;;1.50;0.70;;;12.90;99.90;;;;;;5093460;28;20631;-85
2024/01/24 03:05:29;;;;;;;0.70;0.70;;;12.90;99.90;;;;;;5092328;28;20605;-85
2024/01/24 03:07:57;;;;;;;1.53;0.80;;;13.00;99.90;;;;;;5092594;28;20262;-84
2024/01/24 03:10:25;;;;;;;1.30;0.63;;;13.00;99.90;;;;;;5091725;28;20303;-84
2024/01/24 03:12:51;;;;;;;0.97;0.60;;;13.00;99.90;;;;;;5092463;28;20173;-85
2024/01/24 03:15:17;;;;;;;3.50;0.80;;;13.00;99.90;;;;;;5091892;28;20201;-85
2024/01/24 03:17:46;;;;;;;0.60;0.60;;;13.10;99.90;;;;;;5092055;28;20210;-84
2024/01/24 03:20:13;;;;;;;2.73;0.80;;;13.10;99.90;;;;;;5092273;28;20209;-84
2024/01/24 03:22:42;;;;;;;1.30;0.70;;;13.10;99.90;;;;;;5092397;28;20178;-84
2024/01/24 03:25:08;;;;;;;2.20;0.87;;;13.10;99.90;;;;;;5091898;28;20207;-85
2024/01/24 03:27:33;;;;;;;1.33;1.00;;;13.10;99.90;;;;;;5092094;28;20175;-84
2024/01/24 03:29:59;;;;;;;1.13;0.70;;;13.10;99.90;;;;;;5094336;28;20218;-84
2024/01/24 03:32:25;;;;;;;2.27;1.03;;;13.20;99.90;;;;;;5095325;28;20162;-85
2024/01/24 03:34:54;;;;;;;3.67;1.03;;;13.20;99.90;;;;;;5096384;28;20185;-85
2024/01/24 03:37:20;;;;;;;1.87;0.90;;;13.10;99.90;;;;;;5096363;28;20282;-84
2024/01/24 03:39:45;;;;;;;1.20;0.80;;;13.10;99.90;;;;;;5095954;28;20199;-84
2024/01/24 03:42:11;;;;;;;1.50;0.77;;;13.10;99.90;;;;;;5096352;28;20174;-85
2024/01/24 03:44:37;;;;;;;2.70;1.47;;;13.10;99.90;;;;;;5095888;28;20183;-85
2024/01/24 03:47:02;;;;;;;1.67;0.73;;;13.20;99.90;;;;;;5096278;28;20216;-84
2024/01/24 03:49:29;;;;;;;6.03;1.40;;;13.20;99.90;;;;;;5096013;28;20210;-84
2024/01/24 03:51:55;;;;;;;2.83;0.93;;;13.30;99.90;;;;;;5097813;28;20186;-86
2024/01/24 03:54:22;;;;;;;4.87;1.30;;;13.30;99.90;;;;;;5096423;28;20219;-84
2024/01/24 03:56:48;;;;;;;4.30;1.03;;;13.30;99.90;;;;;;5097161;28;20175;-84
2024/01/24 03:59:14;;;;;;;4.43;1.37;;;13.30;99.90;;;;;;5102752;28;20191;-84
2024/01/24 04:01:44;;;;;;;4.50;1.20;;;13.30;99.90;;;;;;5099194;28;20178;-86
2024/01/24 04:04:10;;;;;;;4.00;1.30;;;13.30;99.90;;;;;;5097398;28;20183;-86
2024/01/24 04:06:36;;;;;;;3.17;1.17;;;13.30;99.90;;;;;;5095803;28;20537;-82
2024/01/24 04:09:03;;;;;;;3.17;1.20;;;13.20;99.90;;;;;;5095595;28;20195;-84
2024/01/24 04:11:29;;;;;;;3.13;1.00;;;13.30;99.90;;;;;;5095231;28;20182;-85
2024/01/24 04:13:56;;;;;;;4.83;1.37;;;13.30;99.90;;;;;;5095430;28;20316;-83
2024/01/24 04:16:22;;;;;;;6.10;1.40;;;13.30;99.90;;;;;;5095288;28;20197;-84
2024/01/24 04:18:50;;;;;;;8.90;2.47;;;13.30;99.90;;;;;;5095580;28;20186;-84
2024/01/24 04:21:16;;;;;;;5.70;2.07;;;13.30;99.90;;;;;;5096283;28;20300;-83
2024/01/24 04:23:41;;;;;;;8.03;2.10;;;13.30;99.90;;;;;;5095143;28;20270;-84
2024/01/24 04:26:07;;;;;;;12.47;2.70;;;13.30;99.90;;;;;;5095152;28;20266;-83
2024/01/24 04:28:33;;;;;;;10.13;2.77;;;13.40;99.90;;;;;;5095000;28;20177;-85
2024/01/24 04:31:02;;;;;;;12.33;3.43;;;13.30;99.90;;;;;;5095191;28;20185;-84
2024/01/24 04:33:28;;;;;;;10.27;2.80;;;13.30;99.90;;;;;;5095125;28;20227;-85
2024/01/24 04:35:55;;;;;;;12.00;3.63;;;13.30;99.90;;;;;;5094605;28;20182;-86
2024/01/24 04:38:21;;;;;;;9.93;3.33;;;13.30;99.90;;;;;;5095204;28;20275;-84
2024/01/24 04:40:47;;;;;;;18.93;5.17;;;13.30;99.90;;;;;;5094847;28;20240;-84
2024/01/24 04:43:12;;;;;;;17.57;3.50;;;13.30;99.90;;;;;;5093823;28;20169;-84
2024/01/24 04:45:38;;;;;;;14.30;3.93;;;13.20;99.90;;;;;;5095056;28;20183;-84
2024/01/24 04:48:04;;;;;;;13.20;4.13;;;13.20;99.90;;;;;;5096588;28;20628;-84
2024/01/24 04:50:30;;;;;;;14.13;4.87;;;13.20;99.90;;;;;;5094547;28;20301;-84
2024/01/24 04:52:55;;;;;;;12.57;4.30;;;13.20;99.90;;;;;;5094314;28;20287;-84
2024/01/24 04:55:24;;;;;;;15.57;4.17;;;13.20;99.90;;;;;;5094532;28;20162;-83
2024/01/24 04:57:50;;;;;;;21.40;4.83;;;13.20;99.90;;;;;;5093981;28;20180;-84
2024/01/24 05:00:16;;;;;;;22.13;5.17;;;13.30;99.90;;;;;;5094453;28;20647;-84
2024/01/24 05:02:41;;;;;;;15.70;4.33;;;13.10;99.90;;;;;;5094198;28;20172;-83
2024/01/24 05:05:07;;;;;;;17.50;4.40;;;13.10;99.90;;;;;;5094488;28;20180;-84
2024/01/24 05:07:34;;;;;;;18.40;4.80;;;13.10;99.90;;;;;;5093779;28;20176;-83
2024/01/24 05:10:01;;;;;;;16.43;4.63;;;13.10;99.90;;;;;;5094329;28;20671;-84
2024/01/24 05:12:27;;;;;;;20.37;5.47;;;13.10;99.90;;;;;;5093180;28;20172;-83
2024/01/24 05:14:53;;;;;;;20.70;5.43;;;13.10;99.90;;;;;;5093654;28;20176;-83
2024/01/24 05:17:19;;;;;;;32.13;6.33;;;13.00;99.90;;;;;;5094220;28;20195;-85
2024/01/24 05:19:44;;;;;;;23.83;5.03;;;13.00;99.90;;;;;;5093392;28;20184;-85
2024/01/24 05:22:10;;;;;;;24.63;5.43;;;13.10;99.90;;;;;;5093672;28;20172;-84
2024/01/24 05:24:36;;;;;;;20.87;5.97;;;13.00;99.90;;;;;;5094202;28;20179;-84
2024/01/24 05:27:01;;;;;;;24.63;5.57;;;13.10;99.90;;;;;;5093642;28;20182;-84
2024/01/24 05:29:27;;;;;;;20.77;5.17;;;13.00;99.90;;;;;;5094192;28;20240;-84
2024/01/24 05:31:53;;;;;;;21.40;6.40;;;12.90;99.90;;;;;;5094365;28;20634;-85
2024/01/24 05:34:18;;;;;;;18.87;4.93;;;12.90;99.90;;;;;;5094698;28;20168;-85
2024/01/24 05:36:44;;;;;;;22.27;6.37;;;12.90;99.90;;;;;;5093210;28;20291;-84
2024/01/24 05:39:10;;;;;;;23.90;6.30;;;12.90;99.90;;;;;;5094125;28;20542;-84
2024/01/24 05:41:35;;;;;;;19.80;5.77;;;13.00;99.90;;;;;;5098252;28;20181;-83
2024/01/24 05:44:01;;;;;;;25.83;6.70;;;13.00;99.90;;;;;;5109693;28;20187;-83
2024/01/24 05:46:27;;;;;;;30.27;6.13;;;12.90;99.90;;;;;;5098006;28;20205;-84
2024/01/24 05:48:52;;;;;;;22.30;6.00;;;12.90;99.90;;;;;;5093252;28;20262;-84
2024/01/24 05:51:18;;;;;;;26.53;7.33;;;12.90;99.90;;;;;;5092955;28;20267;-84
2024/01/24 05:53:44;;;;;;;28.23;6.77;;;13.00;99.90;;;;;;5092583;28;20227;-82
2024/01/24 05:56:09;;;;;;;27.87;6.93;;;12.90;99.90;;;;;;5092540;28;20203;-82
2024/01/24 05:58:37;;;;;;;17.17;6.10;;;12.90;99.90;;;;;;5092798;28;20677;-85
2024/01/24 06:01:04;;;;;;;22.13;6.50;;;12.90;99.90;;;;;;5094340;28;20172;-82
2024/01/24 06:03:31;;;;;;;21.13;6.47;;;12.80;99.90;;;;;;5094405;28;20176;-86
2024/01/24 06:05:56;;;;;;;19.50;6.67;;;12.80;99.90;;;;;;5096738;28;20253;-84
2024/01/24 06:08:22;;;;;;;28.47;7.47;;;12.90;99.90;;;;;;5093672;28;20169;-83
2024/01/24 06:10:48;;;;;;;21.90;7.97;;;12.80;99.90;;;;;;5093059;28;20176;-84
2024/01/24 06:13:14;;;;;;;29.83;7.43;;;12.80;99.90;;;;;;5092858;28;20164;-84
2024/01/24 06:15:39;;;;;;;26.30;7.10;;;12.80;99.90;;;;;;5093740;28;20587;-84
2024/01/24 06:18:05;;;;;;;22.47;6.67;;;12.80;99.90;;;;;;5092635;28;20193;-84
2024/01/24 06:20:30;;;;;;;28.90;7.47;;;12.70;99.90;;;;;;5093512;28;20273;-83
2024/01/24 06:22:56;;;;;;;25.37;7.50;;;12.70;99.90;;;;;;5095146;28;20185;-84
2024/01/24 06:25:22;;;;;;;20.30;5.83;;;12.70;99.90;;;;;;5084431;28;20538;-84
2024/01/24 06:27:47;;;;;;;22.87;6.40;;;12.60;99.90;;;;;;5088952;28;20183;-84
2024/01/24 06:30:13;;;;;;;22.73;6.43;;;12.70;99.90;;;;;;5092518;28;20226;-83
2024/01/24 06:32:39;;;;;;;23.53;6.27;;;12.60;99.90;;;;;;5093591;28;20216;-84
2024/01/24 06:35:05;;;;;;;32.93;7.00;;;12.70;99.90;;;;;;5092466;28;20182;-84
2024/01/24 06:37:32;;;;;;;27.27;7.43;;;12.60;99.90;;;;;;5092222;28;20180;-82
2024/01/24 06:39:57;;;;;;;26.50;7.63;;;12.60;99.90;;;;;;5091021;28;20172;-83
2024/01/24 06:42:23;;;;;;;26.83;7.77;;;12.60;99.90;;;;;;5092556;28;20542;-83
2024/01/24 06:44:49;;;;;;;26.07;7.37;;;12.60;99.90;;;;;;5092317;28;20175;-83
2024/01/24 06:47:14;;;;;;;29.07;8.13;;;12.70;99.90;;;;;;5092744;28;20175;-82
2024/01/24 06:49:40;;;;;;;26.17;7.37;;;12.60;99.90;;;;;;5092707;28;20211;-84
2024/01/24 06:52:06;;;;;;;30.03;7.07;;;12.50;99.90;;;;;;5097905;28;20338;-86
2024/01/24 06:54:35;;;;;;;25.43;7.97;;;12.60;99.90;;;;;;5098825;28;20598;-84
2024/01/24 06:57:03;;;;;;;31.13;7.70;;;12.60;99.90;;;;;;5098526;28;20237;-86
2024/01/24 06:59:32;;;;;;;25.10;8.20;;;12.70;99.90;;;;;;5096010;28;20191;-85
2024/01/24 07:01:59;;;;;;;30.60;8.60;;;12.50;99.90;;;;;;5092996;28;20248;-84
2024/01/24 07:04:25;;;;;;;32.87;7.80;;;12.50;99.90;;;;;;5091232;28;20671;-85
2024/01/24 07:06:52;;;;;;;30.90;7.80;;;12.50;99.90;;;;;;5090403;28;20177;-84
2024/01/24 07:09:17;;;;;;;24.80;7.87;;;12.50;99.90;;;;;;5091087;28;20204;-85
2024/01/24 07:11:43;;;;;;;25.57;7.60;;;12.60;99.90;;;;;;5094584;28;20174;-84
2024/01/24 07:14:09;;;;;;;29.37;7.73;;;12.50;99.90;;;;;;5091954;28;20625;-85
2024/01/24 07:16:35;;;;;;;30.37;7.87;;;12.50;99.90;;;;;;5089892;28;20374;-87
2024/01/24 07:19:01;;;;;;;30.93;8.47;;;12.50;99.90;;;;;;5090760;28;20654;-83
2024/01/24 07:21:26;;;;;;;28.83;8.27;;;12.50;99.90;;;;;;5091257;28;20263;-83
2024/01/24 07:23:52;;;;;;;25.30;7.07;;;12.60;99.90;;;;;;5087412;28;20181;-82
2024/01/24 07:26:18;;;;;;;27.57;8.40;;;12.60;99.90;;;;;;5088427;28;20183;-84
2024/01/24 07:28:43;;;;;;;27.70;7.97;;;12.50;99.90;;;;;;5084621;28;20215;-86
2024/01/24 07:31:09;;;;;;;29.53;7.90;;;12.40;99.90;;;;;;5079084;28;20189;-84
2024/01/24 07:33:34;;;;;;;30.93;8.93;;;12.50;99.90;;;;;;5087279;28;20551;-85
2024/01/24 07:36:01;;;;;;;31.83;7.53;;;12.50;99.90;;;;;;5090796;28;20259;-84
2024/01/24 07:38:27;;;;;;;27.97;7.30;;;12.40;99.90;;;;;;5091507;28;20229;-83
2024/01/24 07:40:52;;;;;;;33.03;8.57;;;12.40;99.90;;;;;;5082984;28;20178;-85
2024/01/24 07:43:19;;;;;;;27.00;7.47;;;12.40;99.90;;;;;;5072198;28;20182;-83
2024/01/24 07:45:45;;;;;;;26.73;7.07;;;12.30;99.90;;;;;;5088199;28;20177;-85
2024/01/24 07:48:14;;;;;;;32.80;9.00;;;12.40;99.90;;;;;;5091493;28;20172;-84
2024/01/24 07:50:42;;;;;;;33.00;8.63;;;12.30;99.90;;;;;;5091306;28;20286;-85
2024/01/24 07:53:08;;;;;;;39.87;8.80;;;12.50;99.90;;;;;;5090647;28;20175;-85
2024/01/24 07:55:35;;;;;;;29.80;8.30;;;12.30;99.90;;;;;;5091150;28;20179;-84
2024/01/24 07:58:00;;;;;;;35.07;8.53;;;12.40;99.90;;;;;;5082504;28;20193;-85
2024/01/24 08:00:30;;;;;;;30.80;8.50;;;12.40;99.90;;;;;;5094303;28;20191;-84
2024/01/24 08:02:57;;;;;;;29.87;8.40;;;12.40;99.90;;;;;;5080354;28;20703;-84
2024/01/24 08:05:23;;;;;;;26.73;8.10;;;12.50;99.90;;;;;;5091070;28;20692;-85
2024/01/24 08:07:52;;;;;;;33.43;9.57;;;12.30;99.90;;;;;;5091931;28;20218;-85
2024/01/24 08:10:18;;;;;;;30.57;8.63;;;12.30;99.90;;;;;;5088587;28;20740;-85
2024/01/24 08:12:43;;;;;;;34.97;9.17;;;12.20;99.90;;;;;;5095529;28;20251;-84
2024/01/24 08:15:09;;;;;;;35.20;9.33;;;12.30;99.90;;;;;;5087337;28;20185;-84
2024/01/24 08:17:36;;;;;;;27.37;9.07;;;12.30;99.90;;;;;;5091599;28;20682;-84
2024/01/24 08:20:09;;;;;;;31.63;7.80;;;12.30;99.90;;;;;;5092430;28;20682;-83
2024/01/24 08:22:35;;;;;;;44.73;10.00;;;12.30;99.90;;;;;;5092718;28;20624;-83
2024/01/24 08:25:02;;;;;;;33.53;8.80;;;12.20;99.90;;;;;;5095449;28;20182;-91
2024/01/24 08:27:27;;;;;;;39.93;9.13;;;12.20;99.90;;;;;;5083954;28;20186;-85
2024/01/24 08:29:53;;;;;;;23.37;7.13;;;12.30;99.90;;;;;;5099804;28;20215;-87
2024/01/24 08:32:19;;;;;;;38.23;9.00;;;12.20;99.90;;;;;;5109873;28;20171;-86
2024/01/24 08:34:45;;;;;;;32.50;9.23;;;12.20;99.90;;;;;;5107712;28;20216;-88
2024/01/24 08:37:12;;;;;;;30.37;8.10;;;12.20;99.90;;;;;;5098658;28;20206;-86
2024/01/24 08:39:42;;;;;;;40.70;9.70;;;12.20;99.90;;;;;;5084600;28;20181;-87
2024/01/24 08:42:07;;;;;;;32.13;8.53;;;12.10;99.90;;;;;;5091856;28;20288;-89
2024/01/24 08:44:33;;;;;;;32.23;8.27;;;12.10;99.90;;;;;;5078753;28;20181;-85
2024/01/24 08:46:59;;;;;;;32.70;8.67;;;12.10;99.90;;;;;;5078964;28;20180;-87
2024/01/24 08:49:25;;;;;;;32.70;9.13;;;12.10;99.90;;;;;;5075066;28;20256;-88
2024/01/24 08:51:50;;;;;;;34.53;9.00;;;12.20;99.90;;;;;;5080157;28;20207;-86
2024/01/24 08:54:16;;;;;;;34.57;9.43;;;12.10;99.90;;;;;;5086357;28;20659;-86
2024/01/24 08:56:42;;;;;;;35.80;10.10;;;12.10;99.90;;;;;;5095306;28;20616;-86
2024/01/24 08:59:07;;;;;;;34.20;9.00;;;12.20;99.90;;;;;;5087126;28;20185;-87
2024/01/24 09:01:33;;;;;;;41.50;9.80;;;12.10;99.90;;;;;;5095305;28;20192;-88
2024/01/24 09:03:59;;;;;;;43.93;10.03;;;12.20;99.90;;;;;;5092064;28;20179;-86
2024/01/24 09:06:25;;;;;;;38.50;8.57;;;12.10;99.90;;;;;;5115604;28;20240;-86
2024/01/24 09:08:52;;;;;;;36.87;10.63;;;12.20;99.90;;;;;;5103051;28;20318;-89
2024/01/24 09:11:19;;;;;;;39.27;9.60;;;12.20;99.90;;;;;;5097208;28;20527;-88
2024/01/24 09:13:46;;;;;;;34.00;9.30;;;12.10;99.90;;;;;;5095035;28;20167;-89
2024/01/24 09:16:15;;;;;;;38.67;8.90;;;12.00;99.90;;;;;;5104742;28;20212;-87
2024/01/24 09:18:42;;;;;;;37.30;9.53;;;12.00;99.90;;;;;;5104476;28;20174;-88
2024/01/24 09:21:10;;;;;;;37.27;10.20;;;12.00;99.90;;;;;;5082212;28;20239;-89
2024/01/24 09:23:35;;;;;;;34.50;9.67;;;12.00;99.90;;;;;;5095484;28;20518;-90
2024/01/24 09:26:03;;;;;;;29.67;8.50;;;12.00;99.90;;;;;;5099604;28;20254;-89
2024/01/24 09:28:29;;;;;;;33.53;8.97;;;12.00;99.90;;;;;;5094110;28;20167;-90
2024/01/24 09:30:54;;;;;;;34.07;9.07;;;12.10;99.90;;;;;;5093311;28;20182;-87
2024/01/24 09:33:20;;;;;;;33.40;8.23;;;12.10;99.90;;;;;;5094924;28;20205;-88
2024/01/24 09:35:46;;;;;;;33.67;10.47;;;12.10;99.90;;;;;;5095699;28;20186;-85
2024/01/24 09:38:13;;;;;;;34.43;9.17;;;12.20;99.90;;;;;;5093235;28;20182;-82
2024/01/24 09:40:39;;;;;;;36.13;9.50;;;12.30;99.90;;;;;;5086883;28;20169;-91
2024/01/24 09:43:10;;;;;;;35.93;9.60;;;12.30;99.90;;;;;;5090427;28;20180;-86
2024/01/24 09:45:42;;;;;;;42.07;9.93;;;12.30;99.90;;;;;;5091276;28;20171;-86
2024/01/24 09:48:10;;;;;;;30.83;8.93;;;12.20;99.90;;;;;;5073672;28;20207;-85
2024/01/24 09:50:39;;;;;;;38.00;11.00;;;12.20;99.90;;;;;;5090037;28;20204;-89
2024/01/24 09:53:08;;;;;;;36.40;9.87;;;12.20;99.90;;;;;;5086544;28;20212;-90
2024/01/24 09:55:35;;;;;;;46.07;10.80;;;12.20;99.90;;;;;;5074469;28;20190;-87
2024/01/24 09:58:01;;;;;;;37.90;10.07;;;12.20;99.90;;;;;;5073252;28;20192;-86
2024/01/24 10:00:27;;;;;;;38.50;10.47;;;12.20;99.90;;;;;;5080791;28;20255;-87
2024/01/24 10:02:54;;;;;;;37.67;10.30;;;12.20;99.90;;;;;;5087840;28;20181;-86
2024/01/24 10:05:20;;;;;;;36.73;9.87;;;12.20;99.90;;;;;;5089916;28;20628;-86
2024/01/24 10:07:46;;;;;;;38.67;10.83;;;12.20;99.90;;;;;;5091671;28;20181;-85
2024/01/24 10:10:13;;;;;;;37.80;9.43;;;12.20;99.90;;;;;;5092853;28;20212;-84
2024/01/24 10:12:45;;;;;;;31.80;9.30;;;12.20;99.90;;;;;;5092939;28;20646;-85
2024/01/24 10:15:12;;;;;;;36.23;10.17;;;12.10;99.90;;;;;;5092724;28;20179;-84
2024/01/24 10:17:42;;;;;;;31.73;8.50;;;12.20;99.90;;;;;;5093249;28;20246;-85
2024/01/24 10:20:11;;;;;;;30.00;8.60;;;12.20;99.90;;;;;;5094581;28;20168;-85
2024/01/24 10:22:39;;;;;;;37.50;10.20;;;12.20;99.90;;;;;;5098592;28;20168;-85
2024/01/24 10:25:05;;;;;;;31.23;9.97;;;12.20;99.90;;;;;;5096306;28;20170;-86
2024/01/24 10:27:37;;;;;;;37.00;10.77;;;12.30;99.90;;;;;;5093672;28;20225;-84
2024/01/24 10:30:08;;;;;;;34.43;8.27;;;12.20;99.90;;;;;;5095187;28;20211;-83
2024/01/24 10:32:35;;;;;;;38.43;9.93;;;12.20;99.90;;;;;;5092966;28;20168;-85
2024/01/24 10:35:04;;;;;;;34.63;9.43;;;12.30;99.90;;;;;;5092216;28;20264;-83
2024/01/24 10:37:29;;;;;;;42.23;9.90;;;12.40;99.90;;;;;;5092389;28;20268;-84
2024/01/24 10:39:56;;;;;;;26.40;7.87;;;12.40;99.90;;;;;;5092154;28;20168;-85
2024/01/24 10:42:28;;;;;;;27.50;8.83;;;12.40;99.90;;;;;;5091317;28;20680;-83
2024/01/24 10:44:55;;;;;;;34.63;9.70;;;12.30;99.90;;;;;;5092091;28;20177;-85
2024/01/24 10:47:21;;;;;;;39.13;10.13;;;12.40;99.90;;;;;;5092484;28;20172;-84
2024/01/24 10:49:49;;;;;;;39.47;9.30;;;12.40;99.90;;;;;;5092234;28;20241;-85
2024/01/24 10:52:16;;;;;;;26.17;8.37;;;12.50;99.90;;;;;;5085761;28;20203;-84
2024/01/24 10:54:42;;;;;;;34.57;9.67;;;12.60;99.90;;;;;;5075089;28;20200;-85
2024/01/24 10:57:14;;;;;;;40.07;9.77;;;12.50;99.90;;;;;;5072054;28;20190;-86
2024/01/24 10:59:44;;;;;;;27.97;7.70;;;12.40;99.90;;;;;;5071364;28;20209;-85
2024/01/24 11:02:10;;;;;;;34.67;8.97;;;12.50;99.90;;;;;;5072895;28;20171;-85
2024/01/24 11:04:37;;;;;;;35.20;10.17;;;12.40;99.90;;;;;;5071705;28;20172;-86
2024/01/24 11:07:11;;;;;;;34.77;8.83;;;12.30;99.90;;;;;;5072146;28;20177;-85
2024/01/24 11:09:53;;;;;;;36.70;9.37;;;12.50;99.90;;;;;;5071979;28;20302;-85
2024/01/24 11:12:23;;;;;;;27.90;9.37;;;12.50;99.90;;;;;;5071944;28;20636;-86
2024/01/24 11:14:51;;;;;;;36.37;9.47;;;12.70;99.90;;;;;;5071442;28;20168;-84
2024/01/24 11:17:16;;;;;;;30.67;7.57;;;12.50;99.90;;;;;;5071774;28;20755;-85
2024/01/24 11:19:42;;;;;;;38.07;9.70;;;12.60;99.90;;;;;;5072075;28;20169;-84
2024/01/24 11:22:22;;;;;;;27.83;7.17;;;12.50;99.90;;;;;;5071913;28;20689;-85
2024/01/24 11:24:48;;;;;;;35.63;9.20;;;12.50;99.90;;;;;;5071399;28;20181;-85
2024/01/24 11:27:35;;;;;;;35.13;8.60;;;12.60;99.90;;;;;;5071259;28;20176;-84
2024/01/24 11:30:23;;;;;;;29.63;8.40;;;12.50;99.90;;;;;;5070767;28;20309;-85
2024/01/24 11:32:55;;;;;;;34.23;9.10;;;12.60;99.90;;;;;;5063712;28;20173;-86
2024/01/24 11:35:37;;;;;;;28.10;8.40;;;12.70;99.90;;;;;;5071511;28;20175;-86
2024/01/24 11:38:27;;;;;;;43.00;10.50;;;12.60;99.90;;;;;;5071427;28;20202;-87
2024/01/24 11:41:10;;;;;;;32.87;8.23;;;12.60;99.90;;;;;;5072537;28;20703;-85
2024/01/24 11:43:35;;;;;;;33.57;7.93;;;12.60;99.90;;;;;;5071672;28;20208;-86
2024/01/24 11:46:06;;;;;;;40.43;9.50;;;12.50;99.90;;;;;;5072381;28;20758;-86
2024/01/24 11:48:35;;;;;;;26.27;7.63;;;12.50;99.90;;;;;;5071587;28;20181;-86
2024/01/24 11:51:02;;;;;;;36.10;9.23;;;12.60;99.90;;;;;;5071591;28;20250;-86
2024/01/24 11:53:28;;;;;;;27.23;8.03;;;12.60;99.90;;;;;;5073415;28;20177;-85
2024/01/24 11:56:02;;;;;;;28.93;8.80;;;12.70;99.90;;;;;;5075780;28;20267;-86
2024/01/24 11:58:29;;;;;;;26.03;8.07;;;12.60;99.90;;;;;;5075278;28;20195;-85
2024/01/24 12:01:07;;;;;;;37.27;8.97;;;12.70;99.90;;;;;;5076870;28;20665;-85
2024/01/24 12:03:33;;;;;;;25.13;7.10;;;12.70;99.90;;;;;;5075430;28;20189;-86
2024/01/24 12:06:21;;;;;;;27.53;7.03;;;12.70;99.90;;;;;;5075455;28;20176;-85
2024/01/24 12:08:46;;;;;;;28.33;8.43;;;12.70;99.90;;;;;;5070089;28;20191;-85
2024/01/24 12:11:12;;;;;;;35.23;9.87;;;12.80;99.90;;;;;;5079425;28;20178;-86
2024/01/24 12:13:38;;;;;;;34.17;8.93;;;13.00;99.90;;;;;;5075765;28;20266;-86
2024/01/24 12:16:04;;;;;;;27.27;8.13;;;13.10;99.90;;;;;;5075661;28;20173;-87
2024/01/24 12:18:31;;;;;;;31.37;8.57;;;13.00;99.90;;;;;;5086552;28;20262;-88
2024/01/24 12:20:56;;;;;;;35.33;8.27;;;12.90;99.90;;;;;;5092738;28;20458;-88
2024/01/24 12:23:25;;;;;;;28.30;9.17;;;13.00;99.90;;;;;;5091513;28;20519;-85
2024/01/24 12:26:00;;;;;;;22.80;7.17;;;13.10;99.90;;;;;;5091401;28;20182;-86
2024/01/24 12:28:35;;;;;;;28.40;6.77;;;13.10;99.90;;;;;;5091057;28;20175;-86
2024/01/24 12:31:08;;;;;;;28.53;7.73;;;12.90;99.90;;;;;;5092572;28;20274;-87
2024/01/24 12:33:35;;;;;;;26.37;6.53;;;12.90;99.90;;;;;;5091652;28;20647;-85
2024/01/24 12:36:07;;;;;;;22.80;6.43;;;12.90;99.90;;;;;;5091738;28;20191;-87
2024/01/24 12:38:36;;;;;;;26.83;7.53;;;12.90;99.90;;;;;;5091644;28;20645;-87